SLET/SRZ METAR and TAF weather

Enter ICAO airport designator
Station Type Date Time Source
SLET METAR 2018/12/09 23:00 UTC NOAA

SLET 092300Z 32013KT 9999 FEW017 BKN200 29/22 Q1009


Station Type Date Time Source
SLET Decoded METAR 2018/12/09 23:00 UTC NOAA

Santa Cruz / El Trompillo, Bolivia (SLET) 17-48S 063-11W 414M
Dec 09, 2018 - 06:00 PM EST / 2018.12.09 2300 UTC
Wind: from the NW (320 degrees) at 15 MPH (13 KT):0
Visibility: greater than 7 mile(s):0
Sky conditions: mostly cloudy
Temperature: 84 F (29 C)
Dew Point: 71 F (22 C)
Relative Humidity: 65%
Pressure (altimeter): 29.80 in. Hg (1009 hPa)
ob: SLET 092300Z 32013KT 9999 FEW017 BKN200 29/22 Q1009
cycle: 23

Station Type Date Time Source
SLET TAF 2018/12/09 18:48 UTC NOAA

TAF SLET 091645Z 0918/1018 32015G30KT 9999 SCT020 TX33/0919Z TN22/1010Z
BECMG 0923/1001 32010KT NSC
TEMPO 1007/1011 BKN010
BECMG 1014/1016 32015G25KT SCT023 FEW027TCU


Example: see airport list